createdAt,value
2018-03-06T00:00:45.511Z,28.20
2018-03-06T00:03:13.802Z,27.03
2018-03-06T00:05:42.018Z,27.43
2018-03-06T00:08:11.057Z,27.47
2018-03-06T00:10:39.728Z,24.17
2018-03-06T00:13:07.984Z,28.90
2018-03-06T00:15:37.247Z,33.80
2018-03-06T00:18:05.533Z,31.87
2018-03-06T00:20:33.811Z,26.93
2018-03-06T00:23:02.082Z,26.77
2018-03-06T00:25:30.343Z,21.07
2018-03-06T00:27:58.587Z,23.43
2018-03-06T00:30:26.863Z,26.47
2018-03-06T00:32:55.156Z,23.23
2018-03-06T00:35:23.824Z,30.70
2018-03-06T00:37:52.822Z,24.90
2018-03-06T00:40:21.322Z,33.10
2018-03-06T00:42:49.592Z,33.37
2018-03-06T00:45:17.842Z,30.70
2018-03-06T00:47:46.898Z,24.50
2018-03-06T00:50:15.134Z,28.23
2018-03-06T00:52:43.398Z,30.07
2018-03-06T00:55:12.443Z,29.90
2018-03-06T00:57:40.837Z,27.63
2018-03-06T01:00:09.078Z,29.30
2018-03-06T01:02:37.774Z,39.37
2018-03-06T01:05:06.044Z,27.47
2018-03-06T01:07:34.298Z,32.90
2018-03-06T01:10:02.789Z,26.87
2018-03-06T01:12:31.560Z,30.03
2018-03-06T01:15:00.596Z,25.47
2018-03-06T01:17:28.846Z,33.77
2018-03-06T01:19:57.111Z,25.30
2018-03-06T01:22:26.142Z,22.77
2018-03-06T01:24:54.392Z,27.93
2018-03-06T01:27:23.398Z,21.33
2018-03-06T01:29:51.643Z,25.97
2018-03-06T01:32:19.898Z,27.70
2018-03-06T01:34:48.150Z,22.93
2018-03-06T01:37:16.387Z,26.90
2018-03-06T01:39:45.427Z,25.80
2018-03-06T01:42:13.665Z,24.43
2018-03-06T01:44:42.430Z,28.30
2018-03-06T01:47:10.689Z,30.87
2018-03-06T01:49:39.837Z,33.63
2018-03-06T01:52:08.107Z,25.90
2018-03-06T01:54:37.150Z,33.40
2018-03-06T01:57:05.430Z,33.13
2018-03-06T01:59:35.044Z,25.07
2018-03-06T02:02:03.278Z,32.57
2018-03-06T02:04:31.550Z,35.03
2018-03-06T02:06:59.802Z,29.50
2018-03-06T02:09:28.132Z,26.47
2018-03-06T02:11:56.408Z,31.90
2018-03-06T02:14:25.086Z,26.47
2018-03-06T02:16:53.330Z,32.40
2018-03-06T02:19:22.346Z,26.43
2018-03-06T02:21:50.616Z,27.57
2018-03-06T02:24:18.864Z,32.20
2018-03-06T02:26:47.574Z,31.03
2018-03-06T02:29:15.820Z,29.30
2018-03-06T02:31:44.085Z,23.53
2018-03-06T02:34:12.349Z,26.20
2018-03-06T02:36:40.599Z,32.43
2018-03-06T02:39:08.837Z,33.27
2018-03-06T02:41:37.992Z,30.43
2018-03-06T02:44:06.269Z,29.80
2018-03-06T02:46:34.535Z,28.03
2018-03-06T02:49:02.803Z,29.70
2018-03-06T02:51:31.086Z,27.20
2018-03-06T02:53:59.849Z,36.77
2018-03-06T02:56:28.138Z,33.30
2018-03-06T02:58:56.406Z,33.27
2018-03-06T03:01:25.413Z,28.80
2018-03-06T03:03:54.005Z,26.37
2018-03-06T03:06:22.262Z,39.50
2018-03-06T03:08:51.269Z,30.20
2018-03-06T03:11:19.581Z,34.50
2018-03-06T03:13:47.826Z,32.73
2018-03-06T03:16:16.113Z,26.30
2018-03-06T03:18:45.856Z,36.90
2018-03-06T03:21:14.098Z,31.70
2018-03-06T03:23:42.664Z,30.23
2018-03-06T03:26:11.664Z,29.20
2018-03-06T03:28:39.935Z,30.47
2018-03-06T03:31:08.946Z,29.37
2018-03-06T03:33:37.225Z,43.93
2018-03-06T03:36:05.826Z,31.37
2018-03-06T03:38:34.081Z,30.77
2018-03-06T03:41:02.479Z,33.43
2018-03-06T03:43:31.192Z,35.83
2018-03-06T03:45:59.413Z,26.93
2018-03-06T03:48:28.108Z,28.20
2018-03-06T03:50:56.393Z,34.30
2018-03-06T03:53:24.638Z,28.70
2018-03-06T03:55:53.886Z,22.20
2018-03-06T03:58:22.146Z,27.83
2018-03-06T04:00:50.390Z,31.90
2018-03-06T04:03:19.450Z,29.63
2018-03-06T04:05:47.690Z,28.83
2018-03-06T04:08:16.703Z,23.17
2018-03-06T04:10:45.578Z,42.03
2018-03-06T04:13:14.595Z,30.53
2018-03-06T04:15:43.341Z,32.40
2018-03-06T04:18:12.354Z,37.33
2018-03-06T04:20:40.637Z,36.53
2018-03-06T04:23:08.915Z,36.53
2018-03-06T04:25:37.210Z,35.47
2018-03-06T04:28:05.496Z,38.63
2018-03-06T04:30:34.694Z,32.70
2018-03-06T04:33:02.944Z,27.93
2018-03-06T04:35:31.226Z,29.40
2018-03-06T04:38:00.255Z,31.10
2018-03-06T04:40:28.503Z,33.00
2018-03-06T04:42:57.154Z,38.10
2018-03-06T04:45:25.410Z,31.53
2018-03-06T04:47:54.549Z,35.57
2018-03-06T04:50:22.834Z,26.90
2018-03-06T04:52:51.068Z,43.10
2018-03-06T04:55:19.313Z,29.97
2018-03-06T04:57:47.597Z,30.10
2018-03-06T05:00:15.861Z,36.83
2018-03-06T05:02:44.132Z,34.20
2018-03-06T05:05:12.377Z,36.50
2018-03-06T05:07:41.092Z,35.23
2018-03-06T05:10:09.364Z,34.07
2018-03-06T05:12:38.378Z,34.23
2018-03-06T05:15:06.620Z,31.23
2018-03-06T05:17:35.654Z,35.10
2018-03-06T05:20:04.944Z,40.20
2018-03-06T05:22:33.208Z,42.50
2018-03-06T05:25:01.470Z,41.07
2018-03-06T05:27:30.494Z,35.40
2018-03-06T05:29:58.767Z,46.80
2018-03-06T05:32:27.047Z,38.63
2018-03-06T05:34:55.290Z,32.57
2018-03-06T05:37:24.993Z,32.17
2018-03-06T05:39:54.106Z,35.23
2018-03-06T05:42:22.714Z,31.90
2018-03-06T05:44:51.513Z,47.17
2018-03-06T05:47:19.749Z,41.10
2018-03-06T05:49:49.177Z,39.37
2018-03-06T05:52:18.262Z,40.67
2018-03-06T05:54:46.554Z,48.57
2018-03-06T05:57:14.866Z,49.70
2018-03-06T05:59:43.159Z,39.67
2018-03-06T06:02:11.396Z,40.47
2018-03-06T06:04:39.664Z,53.60
2018-03-06T06:07:08.834Z,36.00
2018-03-06T06:09:38.286Z,42.20
2018-03-06T06:12:06.522Z,42.77
2018-03-06T06:14:35.700Z,55.10
2018-03-06T06:17:03.978Z,53.00
2018-03-06T06:19:32.255Z,42.93
2018-03-06T06:22:00.522Z,43.13
2018-03-06T06:24:28.861Z,46.53
2018-03-06T06:26:57.074Z,48.07
2018-03-06T06:29:25.325Z,46.07
2018-03-06T06:31:53.716Z,40.80
2018-03-06T06:34:21.984Z,39.10
2018-03-06T06:36:50.238Z,39.30
2018-03-06T06:39:19.237Z,47.40
2018-03-06T06:41:47.504Z,48.93
2018-03-06T06:44:15.755Z,53.90
2018-03-06T06:46:44.917Z,48.93
2018-03-06T06:49:13.206Z,41.03
2018-03-06T06:51:41.516Z,51.03
2018-03-06T06:54:10.537Z,50.07
2018-03-06T06:56:38.816Z,43.63
2018-03-06T06:59:07.093Z,43.00
2018-03-06T07:01:35.363Z,41.97
2018-03-06T07:04:03.622Z,52.27
2018-03-06T07:06:32.671Z,59.23
2018-03-06T07:09:00.915Z,47.33
2018-03-06T07:11:29.319Z,47.33
2018-03-06T07:13:57.582Z,59.83
2018-03-06T07:16:25.904Z,48.67
2018-03-06T07:18:54.201Z,44.70
2018-03-06T07:21:23.211Z,57.90
2018-03-06T07:23:52.225Z,53.53
2018-03-06T07:26:20.480Z,50.17
2018-03-06T07:28:49.504Z,39.17
2018-03-06T07:31:17.730Z,47.03
2018-03-06T07:33:45.987Z,45.87
2018-03-06T07:36:14.294Z,50.30
2018-03-06T07:38:42.547Z,42.23
2018-03-06T07:41:10.796Z,50.73
2018-03-06T07:43:39.060Z,44.47
2018-03-06T07:46:08.078Z,46.83
2018-03-06T07:48:36.355Z,56.70
2018-03-06T07:51:04.655Z,50.83
2018-03-06T07:53:32.948Z,52.67
2018-03-06T07:56:01.209Z,61.73
2018-03-06T07:58:29.505Z,53.23
2018-03-06T08:00:57.774Z,57.13
2018-03-06T08:03:26.023Z,54.80
2018-03-06T08:05:54.266Z,56.80
2018-03-06T08:08:23.263Z,52.53
2018-03-06T08:10:52.315Z,59.77
2018-03-06T08:13:20.558Z,57.67
2018-03-06T08:15:48.912Z,47.30
2018-03-06T08:18:18.299Z,53.50
2018-03-06T08:20:46.576Z,50.30
2018-03-06T08:23:16.353Z,70.93
2018-03-06T08:25:45.657Z,53.13
2018-03-06T08:28:14.570Z,54.97
2018-03-06T08:30:43.008Z,52.83
2018-03-06T08:33:11.263Z,52.97
2018-03-06T08:35:40.292Z,57.53
2018-03-06T08:38:08.562Z,54.83
2018-03-06T08:40:37.562Z,54.63
2018-03-06T08:43:05.830Z,57.27
2018-03-06T08:45:34.083Z,62.47
2018-03-06T08:48:03.127Z,63.70
2018-03-06T08:50:31.382Z,56.93
2018-03-06T08:52:59.629Z,56.67
2018-03-06T08:55:28.613Z,53.80
2018-03-06T08:57:57.654Z,63.10
2018-03-06T09:00:25.897Z,55.27
2018-03-06T09:02:54.168Z,59.07
2018-03-06T09:05:23.195Z,51.73
2018-03-06T09:07:51.424Z,56.33
2018-03-06T09:10:19.879Z,58.53
2018-03-06T09:12:48.116Z,52.53
2018-03-06T09:15:16.437Z,81.93
2018-03-06T09:17:44.811Z,64.97
2018-03-06T09:20:13.059Z,64.10
2018-03-06T09:22:41.306Z,65.60
2018-03-06T09:25:09.577Z,59.93
2018-03-06T09:27:37.824Z,59.03
2018-03-06T09:30:06.105Z,63.03
2018-03-06T09:32:34.351Z,68.50
2018-03-06T09:35:02.602Z,66.70
2018-03-06T09:37:30.858Z,72.23
2018-03-06T09:39:59.106Z,78.93
2018-03-06T09:42:27.408Z,76.37
2018-03-06T09:44:57.645Z,73.50
2018-03-06T09:47:25.897Z,75.57
2018-03-06T09:49:54.171Z,59.83
2018-03-06T09:52:22.499Z,70.17
2018-03-06T09:54:50.729Z,80.30
2018-03-06T09:57:19.013Z,82.87
2018-03-06T09:59:47.270Z,71.27
2018-03-06T10:02:15.535Z,72.90
2018-03-06T10:04:43.881Z,87.37
2018-03-06T10:07:12.139Z,60.60
2018-03-06T10:09:40.365Z,59.47
2018-03-06T10:12:08.642Z,63.00
2018-03-06T10:14:36.899Z,65.73
2018-03-06T10:17:05.199Z,97.57
2018-03-06T10:19:34.144Z,64.80
2018-03-06T10:22:03.189Z,61.47
2018-03-06T10:24:31.441Z,80.97
2018-03-06T10:26:59.714Z,69.57
2018-03-06T10:29:27.974Z,70.83
2018-03-06T10:31:56.288Z,82.73
2018-03-06T10:34:24.559Z,92.33
2018-03-06T10:36:52.831Z,62.80
2018-03-06T10:39:21.111Z,69.03
2018-03-06T10:41:49.368Z,72.40
2018-03-06T10:44:18.419Z,83.23
2018-03-06T10:46:46.669Z,65.73
2018-03-06T10:49:14.944Z,57.37
2018-03-06T10:51:43.985Z,62.87
2018-03-06T10:54:12.374Z,79.50
2018-03-06T10:56:40.652Z,67.83
2018-03-06T10:59:08.903Z,58.73
2018-03-06T11:01:37.170Z,53.80
2018-03-06T11:04:05.396Z,60.60
2018-03-06T11:06:34.420Z,51.80
2018-03-06T11:09:02.692Z,41.30
2018-03-06T11:11:30.994Z,59.50
2018-03-06T11:13:59.247Z,44.37
2018-03-06T11:16:27.507Z,41.40
2018-03-06T11:18:55.767Z,54.90
2018-03-06T11:21:24.155Z,53.17
2018-03-06T11:23:52.424Z,70.57
2018-03-06T11:26:20.638Z,51.37
2018-03-06T11:28:48.903Z,42.90
2018-03-06T11:31:17.178Z,32.30
2018-03-06T11:33:45.446Z,30.83
2018-03-06T11:36:15.134Z,47.17
2018-03-06T11:38:43.395Z,37.10
2018-03-06T11:41:11.645Z,25.97
2018-03-06T11:43:41.116Z,33.37
2018-03-06T11:46:10.170Z,57.47
2018-03-06T11:48:38.387Z,22.37
2018-03-06T11:51:07.436Z,26.43
2018-03-06T11:53:35.707Z,34.47
2018-03-06T11:56:03.973Z,22.20
2018-03-06T11:58:32.227Z,25.87
2018-03-06T12:01:00.560Z,26.97
2018-03-06T12:03:28.948Z,33.87
2018-03-06T12:05:57.239Z,24.10
2018-03-06T12:08:25.515Z,27.10
2018-03-06T12:10:53.799Z,37.83
2018-03-06T12:13:22.087Z,13.20
2018-03-06T12:15:51.107Z,41.93
2018-03-06T12:18:19.377Z,7.63
2018-03-06T12:20:47.652Z,5.70
2018-03-06T12:23:16.690Z,8.23
2018-03-06T12:25:44.906Z,8.50
2018-03-06T12:28:14.351Z,16.03
2018-03-06T12:30:42.631Z,4.87
2018-03-06T12:33:11.657Z,9.00
2018-03-06T12:35:39.904Z,8.13
2018-03-06T12:38:08.134Z,6.00
2018-03-06T12:40:36.414Z,8.60
2018-03-06T12:43:05.480Z,15.97
2018-03-06T12:45:33.721Z,30.57
2018-03-06T12:48:02.067Z,3.77
2018-03-06T12:50:30.285Z,11.40
2018-03-06T12:52:58.557Z,33.17
2018-03-06T12:55:26.832Z,7.80
2018-03-06T12:57:55.936Z,9.87
2018-03-06T13:00:24.223Z,43.13
2018-03-06T13:02:52.463Z,26.17
2018-03-06T13:05:22.480Z,8.50
2018-03-06T13:07:52.039Z,8.33
2018-03-06T13:10:20.628Z,7.70
2018-03-06T13:12:48.884Z,28.63
2018-03-06T13:15:17.508Z,7.37
2018-03-06T13:17:46.141Z,10.33
2018-03-06T13:20:14.363Z,10.83
2018-03-06T13:22:42.632Z,11.80
2018-03-06T13:25:10.899Z,13.27
2018-03-06T13:27:39.163Z,16.30
2018-03-06T13:30:07.406Z,13.93
2018-03-06T13:32:36.442Z,18.93
2018-03-06T13:35:04.728Z,11.13
2018-03-06T13:37:32.964Z,9.73
2018-03-06T13:40:01.255Z,19.77
2018-03-06T13:42:29.486Z,18.10
2018-03-06T13:44:57.756Z,11.60
2018-03-06T13:47:26.015Z,15.47
2018-03-06T13:49:54.285Z,22.23
2018-03-06T13:52:22.573Z,17.37
2018-03-06T13:54:50.825Z,17.60
2018-03-06T13:57:19.164Z,12.53
2018-03-06T13:59:47.416Z,17.90
2018-03-06T14:02:15.756Z,16.90
2018-03-06T14:04:44.548Z,9.07
2018-03-06T14:07:12.788Z,12.03
2018-03-06T14:09:41.837Z,10.73
2018-03-06T14:18:57.236Z,26.73
2018-03-06T14:21:25.547Z,26.47
2018-03-06T14:23:53.824Z,36.13
2018-03-06T14:26:22.193Z,34.60
2018-03-06T14:28:50.507Z,37.50
2018-03-06T14:31:18.769Z,33.93
2018-03-06T14:33:47.058Z,35.93
2018-03-06T14:36:16.180Z,34.47
2018-03-06T14:38:45.196Z,32.23
2018-03-06T14:41:13.523Z,36.43
2018-03-06T14:43:41.911Z,38.87
2018-03-06T14:46:10.162Z,34.50
2018-03-06T14:48:38.416Z,35.80
2018-03-06T14:51:06.683Z,55.50
2018-03-06T14:53:34.958Z,37.50
2018-03-06T14:56:03.250Z,38.43
2018-03-06T14:58:31.892Z,44.80
2018-03-06T15:01:00.229Z,36.13
2018-03-06T15:03:28.463Z,35.60
2018-03-06T15:05:56.715Z,34.60
2018-03-06T15:08:24.982Z,35.20
2018-03-06T15:10:53.229Z,43.73
2018-03-06T15:13:21.520Z,32.73
2018-03-06T15:15:49.783Z,35.83
2018-03-06T15:18:18.046Z,36.03
2018-03-06T15:20:46.397Z,35.80
2018-03-06T15:23:15.445Z,39.03
2018-03-06T15:25:43.697Z,35.77
2018-03-06T15:28:11.977Z,37.03
2018-03-06T15:30:42.337Z,46.67
2018-03-06T15:33:10.668Z,37.93
2018-03-06T15:35:38.951Z,39.50
2018-03-06T15:38:07.225Z,39.53
2018-03-06T15:40:36.250Z,35.93
2018-03-06T15:43:04.529Z,45.60
2018-03-06T15:45:32.798Z,34.93
2018-03-06T15:48:01.069Z,37.70
2018-03-06T15:50:29.351Z,35.83
2018-03-06T15:52:57.607Z,39.57
2018-03-06T15:55:25.887Z,41.83
2018-03-06T15:57:54.194Z,34.50
2018-03-06T16:00:22.517Z,35.80
2018-03-06T16:02:51.629Z,41.03
2018-03-06T16:05:19.889Z,38.63
2018-03-06T16:07:48.176Z,33.70
2018-03-06T16:10:16.522Z,37.17
2018-03-06T16:12:44.831Z,39.70
2018-03-06T16:15:13.216Z,46.20
2018-03-06T16:17:41.592Z,33.40
2018-03-06T16:20:11.468Z,37.00
2018-03-06T16:22:39.745Z,36.03
2018-03-06T16:25:08.065Z,41.13
2018-03-06T16:27:37.209Z,44.23
2018-03-06T16:30:05.520Z,37.47
2018-03-06T16:32:33.808Z,36.70
2018-03-06T16:35:02.070Z,42.67
2018-03-06T16:37:30.352Z,44.00
2018-03-06T16:39:58.641Z,46.73
2018-03-06T16:42:27.963Z,41.13
2018-03-06T16:44:57.194Z,62.07
2018-03-06T16:47:25.508Z,40.50
2018-03-06T16:49:53.898Z,37.80
2018-03-06T16:52:22.206Z,53.20
2018-03-06T16:54:50.467Z,52.03
2018-03-06T16:57:18.814Z,42.93
2018-03-06T16:59:47.068Z,56.33
2018-03-06T17:02:15.361Z,51.97
2018-03-06T17:04:43.705Z,43.30
2018-03-06T17:07:12.834Z,55.63
2018-03-06T17:09:41.893Z,52.43
2018-03-06T17:12:10.756Z,59.80
2018-03-06T17:14:39.072Z,57.93
2018-03-06T17:17:08.110Z,56.33
2018-03-06T17:19:37.168Z,42.43
2018-03-06T17:22:06.020Z,59.53
2018-03-06T17:24:34.358Z,44.63
2018-03-06T17:27:14.314Z,53.70
2018-03-06T17:29:43.424Z,59.73
2018-03-06T17:32:14.584Z,52.40
2018-03-06T17:34:42.901Z,57.57
2018-03-06T17:37:11.225Z,46.93
2018-03-06T17:39:39.490Z,53.37
2018-03-06T17:42:08.255Z,49.17
2018-03-06T17:44:36.658Z,57.03
2018-03-06T17:47:05.173Z,60.03
2018-03-06T17:49:33.444Z,74.13
2018-03-06T17:52:01.739Z,55.53
2018-03-06T17:54:30.025Z,68.50
2018-03-06T17:56:58.367Z,49.37
2018-03-06T17:59:26.697Z,48.23
2018-03-06T18:01:55.746Z,52.23
2018-03-06T18:04:24.030Z,54.33
2018-03-06T18:06:52.271Z,40.20
2018-03-06T18:09:20.573Z,52.47
2018-03-06T18:11:48.847Z,51.30
2018-03-06T18:14:20.035Z,41.57
2018-03-06T18:16:49.095Z,47.73
2018-03-06T18:19:17.362Z,53.20
2018-03-06T18:21:45.724Z,62.43
2018-03-06T18:24:14.387Z,54.30
2018-03-06T18:26:42.717Z,45.50
2018-03-06T18:29:11.117Z,46.77
2018-03-06T18:31:39.367Z,43.60
2018-03-06T18:34:07.669Z,44.63
2018-03-06T18:36:35.913Z,51.47
2018-03-06T18:39:04.325Z,75.77
2018-03-06T18:41:32.551Z,48.30
2018-03-06T18:44:00.944Z,55.10
2018-03-06T18:46:29.305Z,51.57
2018-03-06T18:48:58.001Z,52.60
2018-03-06T18:51:26.347Z,43.27
2018-03-06T18:53:55.459Z,59.90
2018-03-06T18:56:24.497Z,50.27
2018-03-06T18:58:52.812Z,49.00
2018-03-06T19:01:41.701Z,49.37
2018-03-06T19:04:21.945Z,52.70
2018-03-06T19:06:52.078Z,57.33
2018-03-06T19:09:20.424Z,69.47
2018-03-06T19:11:48.679Z,47.17
2018-03-06T19:14:17.006Z,64.93
2018-03-06T19:16:46.058Z,46.80
2018-03-06T19:19:14.368Z,55.80
2018-03-06T19:21:42.647Z,65.87
2018-03-06T19:24:10.960Z,54.80
2018-03-06T19:26:39.234Z,56.37
2018-03-06T19:29:08.137Z,47.70
2018-03-06T19:31:36.459Z,58.70
2018-03-06T19:34:04.836Z,53.20
2018-03-06T19:36:33.101Z,50.90
2018-03-06T19:39:01.375Z,60.10
2018-03-06T19:41:30.091Z,46.47
2018-03-06T19:43:58.837Z,44.17
2018-03-06T19:46:27.127Z,55.67
2018-03-06T19:48:55.376Z,51.90
2018-03-06T19:51:23.811Z,46.73
2018-03-06T19:53:55.144Z,59.27
2018-03-06T19:56:24.462Z,42.40
2018-03-06T19:58:52.779Z,44.83
2018-03-06T20:01:22.031Z,50.97
2018-03-06T20:03:52.010Z,57.13
2018-03-06T20:06:20.312Z,60.80
2018-03-06T20:08:49.022Z,56.07
2018-03-06T20:11:18.056Z,47.50
2018-03-06T20:13:46.321Z,48.53
2018-03-06T20:16:14.635Z,49.63
2018-03-06T20:18:43.684Z,57.60
2018-03-06T20:21:12.049Z,50.23
2018-03-06T20:23:40.510Z,51.07
2018-03-06T20:26:08.793Z,48.90
2018-03-06T20:28:38.641Z,58.13
2018-03-06T20:31:13.754Z,46.63
2018-03-06T20:33:42.021Z,53.33
2018-03-06T20:36:10.319Z,47.30
2018-03-06T20:41:44.653Z,56.80
2018-03-06T20:44:13.756Z,49.57
2018-03-06T20:46:48.507Z,49.40
2018-03-06T20:49:17.107Z,45.00
2018-03-06T20:51:45.384Z,53.50
2018-03-06T20:54:19.647Z,50.07
2018-03-06T20:56:47.968Z,58.60
2018-03-06T20:59:17.027Z,51.23
2018-03-06T21:01:45.306Z,41.00
2018-03-06T21:04:13.605Z,39.97
2018-03-06T21:06:42.709Z,46.20
2018-03-06T21:09:11.729Z,41.83
2018-03-06T21:11:40.041Z,40.07
2018-03-06T21:14:08.959Z,41.37
2018-03-06T21:16:38.550Z,46.90
2018-03-06T21:19:07.567Z,45.87
2018-03-06T21:21:37.471Z,63.30
2018-03-06T21:24:06.587Z,48.10
2018-03-06T21:26:35.681Z,45.70
2018-03-06T21:29:03.954Z,58.07
2018-03-06T21:31:32.265Z,49.23
2018-03-06T21:34:00.564Z,54.20
2018-03-06T21:36:28.823Z,59.67
2018-03-06T21:38:57.100Z,47.07
2018-03-06T21:41:25.382Z,49.13
2018-03-06T21:43:53.705Z,43.23
2018-03-06T21:46:21.955Z,52.30
2018-03-06T21:48:50.217Z,48.80
2018-03-06T21:51:18.511Z,49.87
2018-03-06T21:53:46.793Z,83.57
2018-03-06T21:56:15.083Z,48.03
2018-03-06T21:58:44.136Z,56.00
2018-03-06T22:01:12.498Z,49.63
2018-03-06T22:03:41.515Z,41.70
2018-03-06T22:06:09.778Z,48.70
2018-03-06T22:08:38.333Z,63.27
2018-03-06T22:11:08.117Z,50.50
2018-03-06T22:13:36.431Z,54.97
2018-03-06T22:16:04.705Z,42.60
2018-03-06T22:18:33.008Z,49.63
2018-03-06T22:21:01.234Z,57.93
2018-03-06T22:23:29.518Z,53.80
2018-03-06T22:25:57.767Z,53.77
2018-03-06T22:28:26.038Z,46.53
2018-03-06T22:30:54.273Z,50.53
2018-03-06T22:33:23.311Z,50.83
2018-03-06T22:35:51.588Z,60.53
2018-03-06T22:38:19.829Z,51.87
2018-03-06T22:40:48.858Z,45.63
2018-03-06T22:43:17.097Z,63.33
2018-03-06T22:45:46.145Z,63.17
2018-03-06T22:48:14.463Z,58.10
2018-03-06T22:50:42.693Z,65.93
2018-03-06T22:53:10.956Z,56.67
2018-03-06T22:55:39.187Z,59.87
2018-03-06T22:58:08.202Z,43.53
2018-03-06T23:00:36.495Z,57.77
2018-03-06T23:03:04.747Z,48.57
2018-03-06T23:05:33.796Z,53.23
2018-03-06T23:08:02.053Z,52.43
2018-03-06T23:10:30.334Z,56.87
2018-03-06T23:12:58.586Z,51.57
2018-03-06T23:15:27.612Z,54.27
2018-03-06T23:17:55.941Z,52.73
2018-03-06T23:20:24.354Z,64.30
2018-03-06T23:22:52.621Z,58.67
2018-03-06T23:25:20.919Z,55.43
2018-03-06T23:27:49.146Z,55.87
2018-03-06T23:30:18.169Z,59.87
2018-03-06T23:32:46.438Z,74.70
2018-03-06T23:35:15.450Z,61.87
2018-03-06T23:37:43.744Z,51.43
2018-03-06T23:40:11.988Z,57.33
2018-03-06T23:42:41.027Z,57.53
2018-03-06T23:45:09.303Z,45.73
2018-03-06T23:47:37.542Z,67.07
2018-03-06T23:50:06.585Z,62.77
2018-03-06T23:52:34.847Z,49.63
2018-03-06T23:55:03.103Z,52.03
2018-03-06T23:57:31.369Z,51.37
